Terminal Aerodrome Forecast
Issued by NWS Austin/San Antonio, TX

Home | Current Version | Previous Version | Text Only | Print | Product List | Glossary On
Versions: 1 2 3 4 5 6 7 8 9 10 11 12 13 14 15 16 17 18 19 20 21 22 23 24 25
000
FTUS44 KEWX 272340
TAFSAT
TAF
KSAT 272340Z 2800/2906 29011KT P6SM FEW070 SCT250
     FM281100 35012KT P6SM BKN012
     FM281500 36015G25KT P6SM BKN035 BKN250
     FM290000 34008KT P6SM SCT035 BKN250=

USA.gov is the U.S. government's official web portal to all federal, state and local government web resources and services.